createdAt,value
2022-10-03T00:00:15.540Z,94686.03
2022-10-03T00:03:23.569Z,94680.03
2022-10-03T00:06:10.655Z,94685.13
2022-10-03T00:09:21.587Z,94689.34
2022-10-03T00:12:14.749Z,94678.31
2022-10-03T00:15:32.574Z,94679.97
2022-10-03T00:18:23.624Z,94674.91
2022-10-03T00:21:22.599Z,94691.88
2022-10-03T00:24:34.623Z,94690.16
2022-10-03T00:27:58.608Z,94690.13
2022-10-03T00:31:31.621Z,94693.53
2022-10-03T00:34:23.603Z,94674.00
2022-10-03T00:37:16.650Z,94682.50
2022-10-03T00:40:39.600Z,94689.28
2022-10-03T00:43:43.740Z,94680.78
2022-10-03T00:46:42.654Z,94681.59
2022-10-03T00:49:32.660Z,94694.38
2022-10-03T00:52:36.597Z,94691.88
2022-10-03T00:55:51.671Z,94692.72
2022-10-03T00:59:08.596Z,94689.34
2022-10-03T01:01:57.704Z,94704.63
2022-10-03T01:04:57.613Z,94715.72
2022-10-03T01:08:08.613Z,94695.34
2022-10-03T01:10:49.657Z,94703.00
2022-10-03T01:13:41.605Z,94699.66
2022-10-03T01:16:29.682Z,94702.22
2022-10-03T01:19:28.622Z,94705.66
2022-10-03T01:22:11.714Z,94701.47
2022-10-03T01:25:13.672Z,94712.56
2022-10-03T01:28:37.890Z,94710.91
2022-10-03T01:31:29.669Z,94710.13
2022-10-03T01:34:40.375Z,94706.75
2022-10-03T01:37:47.592Z,94705.91
2022-10-03T01:41:05.645Z,94702.53
2022-10-03T01:44:37.640Z,94700.88
2022-10-03T01:47:57.640Z,94698.34
2022-10-03T01:50:57.583Z,94702.59
2022-10-03T01:54:28.610Z,94698.34
2022-10-03T01:57:15.679Z,94700.06
2022-10-03T02:00:14.607Z,94699.16
2022-10-03T02:03:14.603Z,94694.03
2022-10-03T02:06:07.622Z,94695.78
2022-10-03T02:08:58.766Z,94711.91
2022-10-03T02:12:30.617Z,94695.78
2022-10-03T02:15:28.999Z,94698.34
2022-10-03T02:18:28.619Z,94693.19
2022-10-03T02:21:27.623Z,94688.06
2022-10-03T02:24:14.635Z,94689.78
2022-10-03T02:26:59.697Z,94689.78
2022-10-03T02:29:52.623Z,94688.13
2022-10-03T02:32:50.637Z,94695.78
2022-10-03T02:35:52.635Z,94694.03
2022-10-03T02:38:40.704Z,94696.59
2022-10-03T02:41:42.911Z,94699.09
2022-10-03T02:44:28.133Z,94694.88
2022-10-03T02:47:17.624Z,94691.44
2022-10-03T02:50:40.643Z,94696.56
2022-10-03T02:53:39.628Z,94699.09
2022-10-03T02:56:32.654Z,94693.16
2022-10-03T02:59:23.709Z,94688.94
2022-10-03T03:02:51.680Z,94673.63
2022-10-03T03:05:43.715Z,94668.53
2022-10-03T03:09:21.655Z,94672.81
2022-10-03T03:12:29.651Z,94669.44
2022-10-03T03:15:38.657Z,94676.25
2022-10-03T03:19:24.651Z,94678.00
2022-10-03T03:22:43.675Z,94674.69
2022-10-03T03:25:38.741Z,94668.78
2022-10-03T03:28:40.659Z,94665.34
2022-10-03T03:31:48.701Z,94658.59
2022-10-03T03:34:55.642Z,94665.34
2022-10-03T03:37:55.657Z,94655.97
2022-10-03T03:40:54.449Z,94650.00
2022-10-03T03:43:54.666Z,94643.19
2022-10-03T03:46:32.798Z,94655.06
2022-10-03T03:49:37.686Z,94655.88
2022-10-03T03:52:32.737Z,94647.38
2022-10-03T03:55:43.691Z,94649.88
2022-10-03T03:58:51.672Z,94642.28
2022-10-03T04:02:05.710Z,94644.75
2022-10-03T04:04:58.728Z,94651.56
2022-10-03T04:08:18.665Z,94655.78
2022-10-03T04:11:29.695Z,94654.91
2022-10-03T04:14:25.678Z,94652.31
2022-10-03T04:17:32.279Z,94659.13
2022-10-03T04:20:51.695Z,94656.56
2022-10-03T04:23:34.673Z,94672.72
2022-10-03T04:26:58.697Z,94661.63
2022-10-03T04:29:50.506Z,94667.59
2022-10-03T04:32:54.676Z,94648.84
2022-10-03T04:35:46.686Z,94656.50
2022-10-03T04:39:02.692Z,94667.53
2022-10-03T04:42:07.696Z,94659.88
2022-10-03T04:45:53.778Z,94659.00
2022-10-03T04:48:57.691Z,94661.63
2022-10-03T04:52:02.668Z,94658.22
2022-10-03T04:55:12.696Z,94648.88
2022-10-03T04:58:13.688Z,94651.41
2022-10-03T05:01:21.757Z,94642.94
2022-10-03T05:04:10.577Z,94637.81
2022-10-03T05:07:14.708Z,94642.06
2022-10-03T05:09:49.560Z,94627.63
2022-10-03T05:13:08.700Z,94626.78
2022-10-03T05:15:49.943Z,94631.00
2022-10-03T05:18:58.706Z,94633.56
2022-10-03T05:22:18.731Z,94638.63
2022-10-03T05:25:32.717Z,94630.91
2022-10-03T05:28:45.711Z,94644.50
2022-10-03T05:31:53.781Z,94641.91
2022-10-03T05:34:45.797Z,94646.13
2022-10-03T05:37:53.721Z,94642.69
2022-10-03T05:40:34.266Z,94634.16
2022-10-03T05:43:42.722Z,94645.16
2022-10-03T05:46:15.869Z,94634.91
2022-10-03T05:49:24.716Z,94617.84
2022-10-03T05:52:23.803Z,94642.47
2022-10-03T05:55:47.720Z,94640.72
2022-10-03T05:58:33.725Z,94637.28
2022-10-03T06:01:55.781Z,94637.19
2022-10-03T06:05:17.734Z,94649.91
2022-10-03T06:08:20.790Z,94650.75
2022-10-03T06:11:28.758Z,94668.53
2022-10-03T06:14:18.794Z,94663.41
2022-10-03T06:17:43.720Z,94661.72
2022-10-03T06:20:38.827Z,94650.66
2022-10-03T06:24:04.740Z,94648.13
2022-10-03T06:27:05.828Z,94655.00
2022-10-03T06:30:17.745Z,94650.66
2022-10-03T06:33:28.815Z,94656.59
2022-10-03T06:36:41.742Z,94657.41
2022-10-03T06:39:51.899Z,94654.81
2022-10-03T06:43:19.799Z,94672.72
2022-10-03T06:46:26.865Z,94655.66
2022-10-03T06:49:39.731Z,94662.44
2022-10-03T06:52:34.814Z,94669.25
2022-10-03T06:55:46.760Z,94676.91
2022-10-03T06:59:04.757Z,94683.75
2022-10-03T07:02:18.840Z,94682.06
2022-10-03T07:05:50.758Z,94702.53
2022-10-03T07:08:51.736Z,94686.44
2022-10-03T07:12:21.767Z,94682.28
2022-10-03T07:15:33.674Z,94667.06
2022-10-03T07:18:44.766Z,94694.34
2022-10-03T07:21:54.814Z,94673.09
2022-10-03T07:25:18.757Z,94691.88
2022-10-03T07:28:02.920Z,94682.50
2022-10-03T07:31:11.831Z,94697.75
2022-10-03T07:34:15.829Z,94690.94
2022-10-03T07:37:58.789Z,94684.97
2022-10-03T07:41:12.763Z,94685.03
2022-10-03T07:44:28.782Z,94683.31
2022-10-03T07:47:42.767Z,94696.88
2022-10-03T07:50:47.795Z,94705.38
2022-10-03T07:53:44.858Z,94687.44
2022-10-03T07:56:56.768Z,94685.75
2022-10-03T07:59:41.879Z,94689.97
2022-10-03T08:02:43.897Z,94696.72
2022-10-03T08:05:45.879Z,94694.09
2022-10-03T08:08:51.777Z,94711.94
2022-10-03T08:12:16.780Z,94716.13
2022-10-03T08:15:10.902Z,94723.78
2022-10-03T08:18:42.786Z,94688.84
2022-10-03T08:21:33.778Z,94702.38
2022-10-03T08:25:03.270Z,94700.63
2022-10-03T08:27:58.834Z,94700.53
2022-10-03T08:31:13.834Z,94710.66
2022-10-03T08:34:25.765Z,94711.47
2022-10-03T08:37:35.788Z,94710.56
2022-10-03T08:40:21.796Z,94705.41
2022-10-03T08:43:57.793Z,94721.53
2022-10-03T08:47:18.796Z,94714.69
2022-10-03T08:50:19.065Z,94715.56
2022-10-03T08:53:23.800Z,94723.25
2022-10-03T08:56:23.862Z,94741.13
2022-10-03T08:59:50.788Z,94742.03
2022-10-03T09:03:28.649Z,94740.38
2022-10-03T09:06:26.804Z,94726.78
2022-10-03T09:10:07.793Z,94735.28
2022-10-03T09:13:30.789Z,94726.75
2022-10-03T09:16:37.076Z,94719.94
2022-10-03T09:19:25.911Z,94728.44
2022-10-03T09:22:37.796Z,94739.50
2022-10-03T09:25:36.822Z,94724.19
2022-10-03T09:28:39.889Z,94726.75
2022-10-03T09:31:48.932Z,94730.19
2022-10-03T09:34:42.115Z,94731.09
2022-10-03T09:37:35.795Z,94725.09
2022-10-03T09:40:26.884Z,94731.91
2022-10-03T09:43:48.818Z,94731.09
2022-10-03T09:46:44.140Z,94727.66
2022-10-03T09:49:47.811Z,94721.72
2022-10-03T09:52:51.832Z,94745.59
2022-10-03T09:56:13.833Z,94726.88
2022-10-03T09:59:20.834Z,94738.84
2022-10-03T10:02:29.833Z,94732.91
2022-10-03T10:05:37.805Z,94736.22
2022-10-03T10:09:33.829Z,94729.38
2022-10-03T10:12:57.852Z,94720.13
2022-10-03T10:15:42.950Z,94736.25
2022-10-03T10:19:06.862Z,94729.38
2022-10-03T10:21:43.072Z,94720.03
2022-10-03T10:25:08.832Z,94731.09
2022-10-03T10:27:48.913Z,94734.47
2022-10-03T10:31:03.873Z,94726.78
2022-10-03T10:34:08.826Z,94737.81
2022-10-03T10:37:14.829Z,94733.44
2022-10-03T10:40:12.849Z,94737.63
2022-10-03T10:43:33.825Z,94732.78
2022-10-03T10:46:51.922Z,94745.75
2022-10-03T10:49:49.900Z,94728.03
2022-10-03T10:52:55.863Z,94726.50
2022-10-03T10:56:10.833Z,94725.78
2022-10-03T10:59:25.865Z,94726.72
2022-10-03T11:02:33.860Z,94725.09
2022-10-03T11:05:42.188Z,94720.91
2022-10-03T11:08:57.868Z,94723.53
2022-10-03T11:11:53.596Z,94720.97
2022-10-03T11:15:08.879Z,94727.88
2022-10-03T11:18:08.427Z,94719.47
2022-10-03T11:20:54.859Z,94722.91
2022-10-03T11:23:49.864Z,94722.84
2022-10-03T11:27:20.848Z,94722.81
2022-10-03T11:30:44.890Z,94729.63
2022-10-03T11:33:39.975Z,94747.56
2022-10-03T11:36:49.876Z,94730.59
2022-10-03T11:39:25.950Z,94739.13
2022-10-03T11:42:33.864Z,94725.50
2022-10-03T11:45:19.886Z,94743.47
2022-10-03T11:48:13.880Z,94742.59
2022-10-03T11:51:14.873Z,94764.00
2022-10-03T11:54:13.273Z,94753.81
2022-10-03T11:57:25.912Z,94749.59
2022-10-03T12:00:11.934Z,94750.44
2022-10-03T12:03:10.994Z,94755.63
2022-10-03T12:06:29.869Z,94752.19
2022-10-03T12:09:22.889Z,94765.84
2022-10-03T12:12:09.968Z,94753.97
2022-10-03T12:14:58.889Z,94743.78
2022-10-03T12:17:46.974Z,94760.91
2022-10-03T12:21:04.898Z,94774.56
2022-10-03T12:23:38.529Z,94754.22
2022-10-03T12:26:49.891Z,94755.06
2022-10-03T12:29:26.027Z,94773.78
2022-10-03T12:32:38.902Z,94767.84
2022-10-03T12:36:03.141Z,94777.22
2022-10-03T12:39:15.875Z,94772.97
2022-10-03T12:42:00.997Z,94770.44
2022-10-03T12:44:50.883Z,94790.06
2022-10-03T12:47:55.342Z,94789.22
2022-10-03T12:50:44.888Z,94788.38
2022-10-03T12:53:24.900Z,94787.50
2022-10-03T12:56:11.149Z,94772.19
2022-10-03T12:59:20.897Z,94796.88
2022-10-03T13:02:19.977Z,94797.72
2022-10-03T13:05:37.901Z,94794.31
2022-10-03T13:08:45.931Z,94790.94
2022-10-03T13:11:46.989Z,94798.59
2022-10-03T13:14:48.062Z,94801.16
2022-10-03T13:17:36.286Z,94795.19
2022-10-03T13:20:38.944Z,94794.34
2022-10-03T13:23:24.431Z,94795.16
2022-10-03T13:26:57.895Z,94795.97
2022-10-03T13:29:37.935Z,94789.19
2022-10-03T13:32:51.909Z,94785.78
2022-10-03T13:36:06.918Z,94795.97
2022-10-03T13:38:58.940Z,94791.69
2022-10-03T13:42:25.926Z,94796.84
2022-10-03T13:45:21.913Z,94792.59
2022-10-03T13:48:02.091Z,94801.91
2022-10-03T13:51:07.926Z,94801.91
2022-10-03T13:54:10.952Z,94778.94
2022-10-03T13:57:31.916Z,94792.59
2022-10-03T14:00:29.943Z,94792.59
2022-10-03T14:03:41.922Z,94793.44
2022-10-03T14:06:38.149Z,94787.50
2022-10-03T14:09:33.041Z,94789.22
2022-10-03T14:12:51.182Z,94796.91
2022-10-03T14:16:06.974Z,94802.84
2022-10-03T14:19:24.923Z,94803.72
2022-10-03T14:22:07.046Z,94807.19
2022-10-03T14:25:25.922Z,94813.13
2022-10-03T14:28:02.254Z,94813.97
2022-10-03T14:31:12.972Z,94823.34
2022-10-03T14:34:43.036Z,94818.22
2022-10-03T14:37:51.952Z,94830.94
2022-10-03T14:40:32.874Z,94830.94
2022-10-03T14:43:47.948Z,94836.09
2022-10-03T14:46:28.118Z,94831.00
2022-10-03T14:49:53.566Z,94836.91
2022-10-03T14:53:08.974Z,94847.13
2022-10-03T14:56:05.962Z,94850.53
2022-10-03T14:59:03.979Z,94848.88
2022-10-03T15:02:03.036Z,94852.25
2022-10-03T15:04:56.966Z,94848.88
2022-10-03T15:07:56.978Z,94849.72
2022-10-03T15:10:50.977Z,94859.09
2022-10-03T15:13:49.971Z,94860.00
2022-10-03T15:16:48.953Z,94854.88
2022-10-03T15:19:45.971Z,94857.44
2022-10-03T15:22:46.944Z,94869.34
2022-10-03T15:25:39.997Z,94871.91
2022-10-03T15:28:28.040Z,94871.06
2022-10-03T15:31:21.059Z,94871.91
2022-10-03T15:33:59.210Z,94869.34
2022-10-03T15:36:48.960Z,94867.66
2022-10-03T15:39:30.066Z,94860.00
2022-10-03T15:42:16.988Z,94852.34
2022-10-03T15:45:09.054Z,94860.00
2022-10-03T15:47:56.979Z,94855.72
2022-10-03T15:50:45.971Z,94843.84
2022-10-03T15:53:42.977Z,94848.97
2022-10-03T15:56:41.975Z,94855.81
2022-10-03T15:59:34.988Z,94854.16
2022-10-03T16:02:24.084Z,94849.88
2022-10-03T16:05:16.001Z,94849.06
2022-10-03T16:08:01.608Z,94841.41
2022-10-03T16:11:04.997Z,94854.22
2022-10-03T16:14:03.052Z,94855.91
2022-10-03T16:16:57.035Z,94854.25
2022-10-03T16:19:47.060Z,94861.06
2022-10-03T16:22:57.991Z,94872.22
2022-10-03T16:25:54.013Z,94878.22
2022-10-03T16:28:48.967Z,94875.72
2022-10-03T16:31:38.412Z,94887.69
2022-10-03T16:34:37.019Z,94886.03
2022-10-03T16:37:38.997Z,94885.22
2022-10-03T16:40:28.998Z,94883.56
2022-10-03T16:43:12.499Z,94892.09
2022-10-03T16:46:01.020Z,94898.06
2022-10-03T16:48:55.702Z,94896.41
2022-10-03T16:51:52.011Z,94903.22
2022-10-03T16:54:34.995Z,94899.00
2022-10-03T16:57:28.028Z,94902.41
2022-10-03T17:00:07.783Z,94902.41
2022-10-03T17:03:22.043Z,94912.56
2022-10-03T17:06:06.010Z,94908.31
2022-10-03T17:09:05.040Z,94910.03
2022-10-03T17:11:59.018Z,94921.09
2022-10-03T17:14:44.010Z,94926.19
2022-10-03T17:17:46.022Z,94936.41
2022-10-03T17:21:03.019Z,94922.81
2022-10-03T17:24:21.022Z,94936.41
2022-10-03T17:27:06.027Z,94925.38
2022-10-03T17:30:12.031Z,94933.03
2022-10-03T17:32:51.643Z,94926.19
2022-10-03T17:36:06.024Z,94921.09
2022-10-03T17:39:26.019Z,94926.19
2022-10-03T17:42:26.059Z,94912.59
2022-10-03T17:45:40.111Z,94942.41
2022-10-03T17:48:38.081Z,94936.47
2022-10-03T17:51:35.040Z,94918.59
2022-10-03T17:54:27.034Z,94934.75
2022-10-03T17:57:21.151Z,94928.81
2022-10-03T18:00:36.068Z,94939.00
2022-10-03T18:03:45.041Z,94929.63
2022-10-03T18:06:41.037Z,94930.47
2022-10-03T18:09:22.795Z,94944.94
2022-10-03T18:12:24.074Z,94935.63
2022-10-03T18:15:14.060Z,94949.22
2022-10-03T18:18:34.056Z,94942.41
2022-10-03T18:21:41.403Z,94939.84
2022-10-03T18:24:29.122Z,94945.84
2022-10-03T18:27:48.082Z,94952.66
2022-10-03T18:30:45.584Z,94962.88
2022-10-03T18:33:58.061Z,94959.44
2022-10-03T18:36:38.137Z,94962.88
2022-10-03T18:39:33.033Z,94962.88
2022-10-03T18:42:08.136Z,94964.59
2022-10-03T18:44:55.050Z,94973.09
2022-10-03T18:47:40.092Z,94961.16
2022-10-03T18:50:47.069Z,94962.00
2022-10-03T18:53:28.160Z,94964.53
2022-10-03T18:56:19.076Z,94963.69
2022-10-03T18:59:10.220Z,94972.19
2022-10-03T19:02:02.176Z,94973.03
2022-10-03T19:04:57.053Z,94976.41
2022-10-03T19:08:29.075Z,94973.84
2022-10-03T19:11:08.141Z,94980.69
2022-10-03T19:14:03.090Z,94981.50
2022-10-03T19:16:49.901Z,94990.84
2022-10-03T19:19:58.604Z,94998.50
2022-10-03T19:23:02.248Z,94974.63
2022-10-03T19:25:55.075Z,94988.28
2022-10-03T19:28:35.181Z,94988.28
2022-10-03T19:31:31.183Z,94990.00
2022-10-03T19:34:24.109Z,94997.66
2022-10-03T19:37:50.099Z,94990.84
2022-10-03T19:40:52.079Z,94989.19
2022-10-03T19:43:28.172Z,94985.78
2022-10-03T19:46:35.144Z,94984.97
2022-10-03T19:49:38.085Z,94984.13
2022-10-03T19:52:42.104Z,94989.25
2022-10-03T19:55:41.078Z,94995.19
2022-10-03T19:58:14.158Z,94999.47
2022-10-03T20:01:04.144Z,95018.16
2022-10-03T20:03:52.210Z,94999.47
2022-10-03T20:06:57.091Z,95015.66
2022-10-03T20:09:36.493Z,95004.56
2022-10-03T20:12:24.128Z,95018.19
2022-10-03T20:15:04.085Z,95006.28
2022-10-03T20:17:59.107Z,95013.09
2022-10-03T20:20:47.112Z,95019.94
2022-10-03T20:23:30.085Z,95019.09
2022-10-03T20:26:36.175Z,95019.94
2022-10-03T20:29:35.112Z,95021.66
2022-10-03T20:32:09.221Z,95025.97
2022-10-03T20:35:05.152Z,95020.88
2022-10-03T20:37:41.193Z,95032.78
2022-10-03T20:40:41.109Z,95030.22
2022-10-03T20:43:48.117Z,95025.16
2022-10-03T20:46:49.126Z,95033.66
2022-10-03T20:49:50.088Z,95026.88
2022-10-03T20:52:44.132Z,95032.81
2022-10-03T20:55:36.103Z,95037.91
2022-10-03T20:58:38.186Z,95036.25
2022-10-03T21:01:29.191Z,95028.59
2022-10-03T21:04:26.193Z,95038.78
2022-10-03T21:07:33.112Z,95031.13
2022-10-03T21:10:16.209Z,95036.25
2022-10-03T21:13:11.175Z,95037.09
2022-10-03T21:16:06.155Z,95037.09
2022-10-03T21:19:03.141Z,95037.91
2022-10-03T21:22:14.117Z,95043.03
2022-10-03T21:25:13.117Z,95033.69
2022-10-03T21:28:02.132Z,95040.47
2022-10-03T21:30:58.216Z,95035.38
2022-10-03T21:33:54.129Z,95040.47
2022-10-03T21:36:47.133Z,95036.22
2022-10-03T21:39:46.161Z,95036.25
2022-10-03T21:42:31.251Z,95039.63
2022-10-03T21:45:31.166Z,95037.06
2022-10-03T21:48:14.240Z,95040.47
2022-10-03T21:51:07.129Z,95036.19
2022-10-03T21:53:53.190Z,95050.63
2022-10-03T21:57:08.158Z,95041.31
2022-10-03T22:00:12.366Z,95038.75
2022-10-03T22:03:34.138Z,95039.59
2022-10-03T22:06:17.243Z,95043.03
2022-10-03T22:09:10.175Z,95035.31
2022-10-03T22:11:55.283Z,95037.03
2022-10-03T22:15:02.183Z,95031.91
2022-10-03T22:17:52.227Z,95034.47
2022-10-03T22:20:41.133Z,95033.59
2022-10-03T22:23:27.151Z,95031.91
2022-10-03T22:26:41.157Z,95035.31
2022-10-03T22:29:39.180Z,95037.03
2022-10-03T22:32:40.148Z,95025.94
2022-10-03T22:35:43.175Z,95031.88
2022-10-03T22:38:40.145Z,95016.59
2022-10-03T22:41:34.184Z,95024.25
2022-10-03T22:44:12.256Z,95024.25
2022-10-03T22:47:02.199Z,95025.06
2022-10-03T22:49:59.090Z,95021.66
2022-10-03T22:52:50.151Z,95014.84
2022-10-03T22:55:34.147Z,95009.72
2022-10-03T22:58:28.177Z,95024.19
2022-10-03T23:01:22.165Z,95027.59
2022-10-03T23:04:15.218Z,95029.31
2022-10-03T23:07:18.196Z,95025.91
2022-10-03T23:10:42.172Z,95028.47
2022-10-03T23:13:37.180Z,95031.03
2022-10-03T23:17:02.193Z,95033.63
2022-10-03T23:20:23.180Z,95041.31
2022-10-03T23:23:21.190Z,95042.13
2022-10-03T23:26:23.236Z,95040.47
2022-10-03T23:29:14.231Z,95044.72
2022-10-03T23:32:08.243Z,95048.13
2022-10-03T23:35:06.185Z,95045.59
2022-10-03T23:37:55.169Z,95040.53
2022-10-03T23:40:45.198Z,95036.25
2022-10-03T23:43:42.258Z,95034.53
2022-10-03T23:46:32.245Z,95031.97
2022-10-03T23:49:15.174Z,95030.28
2022-10-03T23:52:10.174Z,95033.69
2022-10-03T23:55:03.212Z,95030.28
2022-10-03T23:57:48.251Z,95027.72
